createdAt,value
2022-10-16T00:01:26.006Z,100.00
2022-10-16T00:03:52.881Z,100.00
2022-10-16T00:06:22.153Z,100.00
2022-10-16T00:08:49.579Z,100.00
2022-10-16T00:11:19.627Z,100.00
2022-10-16T00:13:47.904Z,100.00
2022-10-16T00:16:15.918Z,100.00
2022-10-16T00:18:42.784Z,100.00
2022-10-16T00:21:14.878Z,100.00
2022-10-16T00:23:42.120Z,100.00
2022-10-16T00:26:14.343Z,100.00
2022-10-16T00:28:42.046Z,100.00
2022-10-16T00:31:11.831Z,100.00
2022-10-16T00:33:40.572Z,100.00
2022-10-16T00:36:09.309Z,100.00
2022-10-16T00:38:36.107Z,100.00
2022-10-16T00:41:03.092Z,100.00
2022-10-16T00:43:38.361Z,100.00
2022-10-16T00:46:28.621Z,100.00
2022-10-16T00:49:05.798Z,100.00
2022-10-16T00:51:42.226Z,100.00
2022-10-16T00:54:14.366Z,100.00
2022-10-16T00:56:42.989Z,100.00
2022-10-16T00:59:31.747Z,100.00
2022-10-16T01:01:59.967Z,100.00
2022-10-16T01:04:27.530Z,100.00
2022-10-16T01:07:16.430Z,100.00
2022-10-16T01:10:03.415Z,100.00
2022-10-16T01:12:49.216Z,100.00
2022-10-16T01:15:26.516Z,100.00
2022-10-16T01:18:12.493Z,100.00
2022-10-16T01:20:46.325Z,100.00
2022-10-16T01:23:22.858Z,100.00
2022-10-16T01:26:20.476Z,100.00
2022-10-16T01:29:02.657Z,100.00
2022-10-16T01:31:34.103Z,100.00
2022-10-16T01:34:09.719Z,100.00
2022-10-16T01:36:40.934Z,100.00
2022-10-16T01:39:10.879Z,100.00
2022-10-16T01:41:48.083Z,100.00
2022-10-16T01:44:20.791Z,100.00
2022-10-16T01:46:51.296Z,100.00
2022-10-16T01:49:19.684Z,100.00
2022-10-16T01:51:49.559Z,100.00
2022-10-16T01:54:19.888Z,100.00
2022-10-16T01:56:49.717Z,100.00
2022-10-16T01:59:21.913Z,100.00
2022-10-16T02:01:53.909Z,100.00
2022-10-16T02:04:37.307Z,100.00
2022-10-16T02:07:04.563Z,100.00
2022-10-16T02:09:34.688Z,100.00
2022-10-16T02:12:08.654Z,100.00
2022-10-16T02:14:38.971Z,100.00
2022-10-16T02:17:17.667Z,100.00
2022-10-16T02:19:48.218Z,100.00
2022-10-16T02:22:37.339Z,100.00
2022-10-16T02:25:04.228Z,100.00
2022-10-16T02:27:44.031Z,100.00
2022-10-16T02:30:19.444Z,100.00
2022-10-16T02:32:49.161Z,100.00
2022-10-16T02:35:19.729Z,100.00
2022-10-16T02:37:47.782Z,100.00
2022-10-16T02:40:15.699Z,100.00
2022-10-16T02:42:42.796Z,100.00
2022-10-16T02:45:11.418Z,100.00
2022-10-16T02:47:38.787Z,100.00
2022-10-16T02:50:06.293Z,100.00
2022-10-16T02:52:33.488Z,100.00
2022-10-16T02:55:00.549Z,100.00
2022-10-16T02:57:28.187Z,100.00
2022-10-16T02:59:55.564Z,100.00
2022-10-16T03:02:22.362Z,100.00
2022-10-16T03:04:49.386Z,100.00
2022-10-16T03:07:16.439Z,100.00
2022-10-16T03:09:43.663Z,100.00
2022-10-16T03:12:10.511Z,100.00
2022-10-16T03:14:37.658Z,100.00
2022-10-16T03:17:04.432Z,100.00
2022-10-16T03:19:31.357Z,100.00
2022-10-16T03:21:58.389Z,100.00
2022-10-16T03:24:25.318Z,100.00
2022-10-16T03:26:52.071Z,100.00
2022-10-16T03:29:19.084Z,100.00
2022-10-16T03:31:45.953Z,100.00
2022-10-16T03:34:12.971Z,100.00
2022-10-16T03:36:39.739Z,100.00
2022-10-16T03:39:06.753Z,100.00
2022-10-16T03:41:33.559Z,100.00
2022-10-16T03:44:00.524Z,100.00
2022-10-16T03:46:27.339Z,100.00
2022-10-16T03:48:54.338Z,100.00
2022-10-16T03:51:21.114Z,100.00
2022-10-16T03:53:48.191Z,100.00
2022-10-16T03:56:15.010Z,100.00
2022-10-16T03:58:42.175Z,100.00
2022-10-16T04:01:09.086Z,100.00
2022-10-16T04:03:36.114Z,100.00
2022-10-16T04:06:03.034Z,100.00
2022-10-16T04:08:30.124Z,100.00
2022-10-16T04:10:56.911Z,100.00
2022-10-16T04:13:23.964Z,100.00
2022-10-16T04:15:50.727Z,100.00
2022-10-16T04:18:17.689Z,100.00
2022-10-16T04:20:44.450Z,100.00
2022-10-16T04:23:11.408Z,100.00
2022-10-16T04:25:38.380Z,100.00
2022-10-16T04:28:05.379Z,100.00
2022-10-16T04:30:32.234Z,100.00
2022-10-16T04:32:59.196Z,100.00
2022-10-16T04:35:25.946Z,100.00
2022-10-16T04:37:52.967Z,100.00
2022-10-16T04:40:19.859Z,100.00
2022-10-16T04:42:46.824Z,100.00
2022-10-16T04:45:16.433Z,100.00
2022-10-16T04:47:44.247Z,100.00
2022-10-16T04:50:10.992Z,100.00
2022-10-16T04:52:38.023Z,100.00
2022-10-16T04:55:05.406Z,100.00
2022-10-16T04:57:34.305Z,100.00
2022-10-16T05:00:01.081Z,100.00
2022-10-16T05:02:28.154Z,100.00
2022-10-16T05:04:55.005Z,100.00
2022-10-16T05:07:22.001Z,100.00
2022-10-16T05:09:48.799Z,100.00
2022-10-16T05:12:15.833Z,100.00
2022-10-16T05:14:42.606Z,100.00
2022-10-16T05:17:09.729Z,100.00
2022-10-16T05:19:36.543Z,100.00
2022-10-16T05:22:04.110Z,100.00
2022-10-16T05:24:30.926Z,100.00
2022-10-16T05:26:58.019Z,99.24
2022-10-16T05:29:25.058Z,97.40
2022-10-16T05:31:53.792Z,96.20
2022-10-16T05:34:21.568Z,93.46
2022-10-16T05:36:48.650Z,93.25
2022-10-16T05:39:16.911Z,93.93
2022-10-16T05:41:44.649Z,94.76
2022-10-16T05:44:11.818Z,95.32
2022-10-16T05:46:38.844Z,95.78
2022-10-16T05:49:05.742Z,95.98
2022-10-16T05:51:32.735Z,95.86
2022-10-16T05:53:59.578Z,95.84
2022-10-16T05:56:26.621Z,96.64
2022-10-16T05:58:53.929Z,95.81
2022-10-16T06:01:25.393Z,95.92
2022-10-16T06:03:53.229Z,95.43
2022-10-16T06:06:23.872Z,95.42
2022-10-16T06:08:50.927Z,95.09
2022-10-16T06:11:20.287Z,95.29
2022-10-16T06:13:54.623Z,94.72
2022-10-16T06:16:22.131Z,95.25
2022-10-16T06:18:51.388Z,94.53
2022-10-16T06:21:20.865Z,94.65
2022-10-16T06:23:48.604Z,94.18
2022-10-16T06:26:19.255Z,94.18
2022-10-16T06:28:46.137Z,93.79
2022-10-16T06:31:13.725Z,94.54
2022-10-16T06:33:41.137Z,92.83
2022-10-16T06:36:10.885Z,92.95
2022-10-16T06:38:38.664Z,92.33
2022-10-16T06:41:07.167Z,92.21
2022-10-16T06:43:36.370Z,89.55
2022-10-16T06:46:05.755Z,90.07
2022-10-16T06:48:32.603Z,89.37
2022-10-16T06:51:09.427Z,88.87
2022-10-16T06:53:49.164Z,89.21
2022-10-16T06:56:28.521Z,87.58
2022-10-16T06:58:55.375Z,87.72
2022-10-16T07:01:25.008Z,86.90
2022-10-16T07:03:51.625Z,86.65
2022-10-16T07:06:20.674Z,84.82
2022-10-16T07:08:48.436Z,82.33
2022-10-16T07:11:21.116Z,82.06
2022-10-16T07:13:52.700Z,81.39
2022-10-16T07:16:26.072Z,82.40
2022-10-16T07:18:59.217Z,82.47
2022-10-16T07:21:29.732Z,81.07
2022-10-16T07:24:02.461Z,81.35
2022-10-16T07:26:35.488Z,79.78
2022-10-16T07:29:02.513Z,79.96
2022-10-16T07:31:29.605Z,78.65
2022-10-16T07:33:58.594Z,79.18
2022-10-16T07:36:25.766Z,77.31
2022-10-16T07:38:55.452Z,79.22
2022-10-16T07:41:25.848Z,78.10
2022-10-16T07:43:54.279Z,76.86
2022-10-16T07:46:23.303Z,76.55
2022-10-16T07:48:51.442Z,75.60
2022-10-16T07:51:20.889Z,73.93
2022-10-16T07:53:48.145Z,74.65
2022-10-16T07:56:16.555Z,75.47
2022-10-16T07:58:43.894Z,74.37
2022-10-16T08:01:14.157Z,75.01
2022-10-16T08:03:50.020Z,73.85
2022-10-16T08:06:20.778Z,73.75
2022-10-16T08:08:50.785Z,71.87
2022-10-16T08:11:18.070Z,73.68
2022-10-16T08:13:44.913Z,72.89
2022-10-16T08:16:12.271Z,73.28
2022-10-16T08:18:40.886Z,72.11
2022-10-16T08:21:16.863Z,72.84
2022-10-16T08:23:45.858Z,72.67
2022-10-16T08:26:13.876Z,72.42
2022-10-16T08:28:40.954Z,70.51
2022-10-16T08:31:10.495Z,70.11
2022-10-16T08:33:37.686Z,68.37
2022-10-16T08:36:06.439Z,70.28
2022-10-16T08:38:34.552Z,68.08
2022-10-16T08:41:13.945Z,68.93
2022-10-16T08:43:56.049Z,66.83
2022-10-16T08:46:31.365Z,65.16
2022-10-16T08:49:00.473Z,56.60
2022-10-16T08:51:33.565Z,52.34
2022-10-16T08:54:23.911Z,50.78
2022-10-16T08:56:50.975Z,49.38
2022-10-16T08:59:18.451Z,50.29
2022-10-16T09:01:48.349Z,49.88
2022-10-16T09:04:38.975Z,49.18
2022-10-16T09:07:17.563Z,50.80
2022-10-16T09:10:01.899Z,49.73
2022-10-16T09:12:33.063Z,49.98
2022-10-16T09:15:19.089Z,50.33
2022-10-16T09:18:13.663Z,49.64
2022-10-16T09:20:49.275Z,49.45
2022-10-16T09:23:32.023Z,47.42
2022-10-16T09:26:00.155Z,44.19
2022-10-16T09:28:27.460Z,44.48
2022-10-16T09:30:55.312Z,43.21
2022-10-16T09:33:29.318Z,41.13
2022-10-16T09:35:59.817Z,38.82
2022-10-16T09:38:37.560Z,39.33
2022-10-16T09:41:22.057Z,39.70
2022-10-16T09:43:56.788Z,37.54
2022-10-16T09:46:23.501Z,39.01
2022-10-16T09:48:52.802Z,36.93
2022-10-16T09:51:32.456Z,35.19
2022-10-16T09:54:22.704Z,37.61
2022-10-16T09:56:53.000Z,38.63
2022-10-16T09:59:25.077Z,37.36
2022-10-16T10:01:56.404Z,37.83
2022-10-16T10:04:27.103Z,38.20
2022-10-16T10:06:56.879Z,39.86
2022-10-16T10:09:25.387Z,40.70
2022-10-16T10:11:55.063Z,40.96
2022-10-16T10:14:41.187Z,41.69
2022-10-16T10:17:07.896Z,43.25
2022-10-16T10:19:51.586Z,44.02
2022-10-16T10:22:46.874Z,44.14
2022-10-16T10:25:13.898Z,44.05
2022-10-16T10:27:52.174Z,43.77
2022-10-16T10:30:28.815Z,43.25
2022-10-16T10:33:01.602Z,42.97
2022-10-16T10:35:43.019Z,43.61
2022-10-16T10:38:36.921Z,44.34
2022-10-16T10:41:44.495Z,42.76
2022-10-16T10:44:29.766Z,43.10
2022-10-16T10:47:18.143Z,41.87
2022-10-16T10:49:54.482Z,43.07
2022-10-16T10:53:15.525Z,42.02
2022-10-16T10:55:52.362Z,40.57
2022-10-16T10:58:45.404Z,38.43
2022-10-16T11:01:15.132Z,38.36
2022-10-16T11:04:04.450Z,40.28
2022-10-16T11:06:55.604Z,36.96
2022-10-16T11:09:54.725Z,36.66
2022-10-16T11:12:28.718Z,35.47
2022-10-16T11:15:18.985Z,34.86
2022-10-16T11:17:58.710Z,33.72
2022-10-16T11:20:29.620Z,33.49
2022-10-16T11:23:10.269Z,34.32
2022-10-16T11:25:37.343Z,34.22
2022-10-16T11:28:18.098Z,35.17
2022-10-16T11:30:51.475Z,36.39
2022-10-16T11:33:32.690Z,36.05
2022-10-16T11:36:08.707Z,36.00
2022-10-16T11:38:42.445Z,35.34
2022-10-16T11:41:35.886Z,37.44
2022-10-16T11:44:08.401Z,38.99
2022-10-16T11:46:52.622Z,38.58
2022-10-16T11:49:29.424Z,39.83
2022-10-16T11:52:21.276Z,40.21
2022-10-16T11:54:58.441Z,40.73
2022-10-16T11:58:02.247Z,40.71
2022-10-16T12:00:42.719Z,41.82
2022-10-16T12:03:22.772Z,42.32
2022-10-16T12:05:58.930Z,43.69
2022-10-16T12:08:26.844Z,43.63
2022-10-16T12:10:53.891Z,43.77
2022-10-16T12:13:30.193Z,44.03
2022-10-16T12:16:12.605Z,43.70
2022-10-16T12:18:45.767Z,43.65
2022-10-16T12:21:16.724Z,43.94
2022-10-16T12:23:53.155Z,43.70
2022-10-16T12:26:32.728Z,44.20
2022-10-16T12:29:32.135Z,44.59
2022-10-16T12:31:59.269Z,42.45
2022-10-16T12:34:33.878Z,42.31
2022-10-16T12:37:26.341Z,41.53
2022-10-16T12:39:55.628Z,40.75
2022-10-16T12:42:42.504Z,40.42
2022-10-16T12:45:26.017Z,39.76
2022-10-16T12:47:55.235Z,38.75
2022-10-16T12:50:36.645Z,38.69
2022-10-16T12:53:17.820Z,38.45
2022-10-16T12:56:15.969Z,38.52
2022-10-16T12:58:51.553Z,38.38
2022-10-16T13:01:21.501Z,37.83
2022-10-16T13:04:12.536Z,38.74
2022-10-16T13:07:10.481Z,36.67
2022-10-16T13:09:53.148Z,36.68
2022-10-16T13:12:35.290Z,37.44
2022-10-16T13:15:19.969Z,37.99
2022-10-16T13:18:13.538Z,39.33
2022-10-16T13:21:04.904Z,37.86
2022-10-16T13:23:43.804Z,38.11
2022-10-16T13:26:19.418Z,38.20
2022-10-16T13:28:46.819Z,37.56
2022-10-16T13:31:33.259Z,38.02
2022-10-16T13:34:01.823Z,38.07
2022-10-16T13:36:37.233Z,38.69
2022-10-16T13:39:13.055Z,37.43
2022-10-16T13:41:39.999Z,38.80
2022-10-16T13:44:16.746Z,39.25
2022-10-16T13:46:43.621Z,39.96
2022-10-16T13:49:17.058Z,40.41
2022-10-16T13:51:56.238Z,41.42
2022-10-16T13:54:24.521Z,41.53
2022-10-16T13:57:03.027Z,43.01
2022-10-16T13:59:39.675Z,43.29
2022-10-16T14:02:26.357Z,43.79
2022-10-16T14:04:55.022Z,43.40
2022-10-16T14:07:32.175Z,43.80
2022-10-16T14:10:04.514Z,45.15
2022-10-16T14:12:31.828Z,46.16
2022-10-16T14:15:01.214Z,45.51
2022-10-16T14:17:34.719Z,45.86
2022-10-16T14:20:07.041Z,46.68
2022-10-16T14:22:34.542Z,47.48
2022-10-16T14:25:03.430Z,47.43
2022-10-16T14:27:33.725Z,48.08
2022-10-16T14:30:13.589Z,48.40
2022-10-16T14:32:43.260Z,48.75
2022-10-16T14:35:32.979Z,48.36
2022-10-16T14:38:01.849Z,48.70
2022-10-16T14:40:34.918Z,49.78
2022-10-16T14:43:03.824Z,50.11
2022-10-16T14:45:34.874Z,50.78
2022-10-16T14:48:06.070Z,51.38
2022-10-16T14:50:33.262Z,51.81
2022-10-16T14:53:00.153Z,51.98
2022-10-16T14:55:27.408Z,52.85
2022-10-16T14:57:58.222Z,53.55
2022-10-16T15:00:28.101Z,54.35
2022-10-16T15:02:54.838Z,55.10
2022-10-16T15:05:27.378Z,56.18
2022-10-16T15:07:56.447Z,55.57
2022-10-16T15:10:25.311Z,56.56
2022-10-16T15:12:52.960Z,57.73
2022-10-16T15:15:35.533Z,57.92
2022-10-16T15:18:03.665Z,58.99
2022-10-16T15:20:34.833Z,59.75
2022-10-16T15:23:04.470Z,59.57
2022-10-16T15:25:47.289Z,59.89
2022-10-16T15:28:15.491Z,59.55
2022-10-16T15:30:43.357Z,59.38
2022-10-16T15:33:14.794Z,60.05
2022-10-16T15:35:41.889Z,60.01
2022-10-16T15:38:13.630Z,60.28
2022-10-16T15:40:41.706Z,60.63
2022-10-16T15:43:09.027Z,61.00
2022-10-16T15:45:36.221Z,61.42
2022-10-16T15:48:03.140Z,61.72
2022-10-16T15:50:31.797Z,61.67
2022-10-16T15:52:58.984Z,62.00
2022-10-16T15:55:26.012Z,62.31
2022-10-16T15:57:52.843Z,62.73
2022-10-16T16:00:26.491Z,63.05
2022-10-16T16:02:54.926Z,63.49
2022-10-16T16:05:23.064Z,63.77
2022-10-16T16:07:50.082Z,64.21
2022-10-16T16:10:17.703Z,64.06
2022-10-16T16:12:50.323Z,63.96
2022-10-16T16:15:17.531Z,64.72
2022-10-16T16:17:45.195Z,65.07
2022-10-16T16:20:13.180Z,65.90
2022-10-16T16:22:40.209Z,66.58
2022-10-16T16:25:07.480Z,67.15
2022-10-16T16:27:35.218Z,67.64
2022-10-16T16:30:04.582Z,67.94
2022-10-16T16:32:31.880Z,67.72
2022-10-16T16:34:58.857Z,68.06
2022-10-16T16:37:25.913Z,68.05
2022-10-16T16:39:55.367Z,68.22
2022-10-16T16:42:22.533Z,67.79
2022-10-16T16:44:49.480Z,67.91
2022-10-16T16:47:16.243Z,67.69
2022-10-16T16:49:43.319Z,68.15
2022-10-16T16:52:10.105Z,68.31
2022-10-16T16:54:37.179Z,68.77
2022-10-16T16:57:05.213Z,68.77
2022-10-16T16:59:33.823Z,69.31
2022-10-16T17:02:01.227Z,69.87
2022-10-16T17:04:28.322Z,69.87
2022-10-16T17:06:56.113Z,70.27
2022-10-16T17:09:23.345Z,70.59
2022-10-16T17:11:50.150Z,70.92
2022-10-16T17:14:17.219Z,71.86
2022-10-16T17:16:48.672Z,72.33
2022-10-16T17:19:18.813Z,72.67
2022-10-16T17:21:46.473Z,73.39
2022-10-16T17:24:13.472Z,73.53
2022-10-16T17:26:41.562Z,73.71
2022-10-16T17:29:12.411Z,73.51
2022-10-16T17:31:39.359Z,73.77
2022-10-16T17:34:08.619Z,74.19
2022-10-16T17:36:37.861Z,74.40
2022-10-16T17:39:09.581Z,74.16
2022-10-16T17:41:37.167Z,74.69
2022-10-16T17:44:05.714Z,74.66
2022-10-16T17:46:36.873Z,74.82
2022-10-16T17:49:07.234Z,74.90
2022-10-16T17:51:34.099Z,75.10
2022-10-16T17:54:01.634Z,75.33
2022-10-16T17:56:29.831Z,75.72
2022-10-16T17:59:01.928Z,76.17
2022-10-16T18:01:37.430Z,76.49
2022-10-16T18:04:09.395Z,76.57
2022-10-16T18:06:37.593Z,76.67
2022-10-16T18:09:05.976Z,76.11
2022-10-16T18:11:32.893Z,76.45
2022-10-16T18:14:00.405Z,76.26
2022-10-16T18:16:29.582Z,76.39
2022-10-16T18:18:57.955Z,76.80
2022-10-16T18:21:27.561Z,77.24
2022-10-16T18:23:55.200Z,77.31
2022-10-16T18:26:23.030Z,77.64
2022-10-16T18:28:54.296Z,77.68
2022-10-16T18:31:23.048Z,77.65
2022-10-16T18:33:51.395Z,77.65
2022-10-16T18:36:29.803Z,78.15
2022-10-16T18:38:57.561Z,78.29
2022-10-16T18:41:25.196Z,78.92
2022-10-16T18:43:52.674Z,79.35
2022-10-16T18:46:21.850Z,80.13
2022-10-16T18:48:49.132Z,80.55
2022-10-16T18:51:19.984Z,80.84
2022-10-16T18:53:50.280Z,80.25
2022-10-16T18:56:18.999Z,80.29
2022-10-16T18:58:48.644Z,80.05
2022-10-16T19:01:20.986Z,79.45
2022-10-16T19:04:09.587Z,79.51
2022-10-16T19:06:39.838Z,79.65
2022-10-16T19:09:08.458Z,79.69
2022-10-16T19:11:39.166Z,79.92
2022-10-16T19:14:08.907Z,79.61
2022-10-16T19:16:36.232Z,80.27
2022-10-16T19:19:06.587Z,80.39
2022-10-16T19:21:36.671Z,80.71
2022-10-16T19:24:04.268Z,80.79
2022-10-16T19:26:33.382Z,80.65
2022-10-16T19:29:04.692Z,80.78
2022-10-16T19:31:31.956Z,80.41
2022-10-16T19:34:01.156Z,80.38
2022-10-16T19:36:31.276Z,80.19
2022-10-16T19:39:00.613Z,80.03
2022-10-16T19:41:29.399Z,79.61
2022-10-16T19:44:00.941Z,79.56
2022-10-16T19:46:27.948Z,79.48
2022-10-16T19:49:01.008Z,79.02
2022-10-16T19:51:28.919Z,79.15
2022-10-16T19:53:58.705Z,78.83
2022-10-16T19:56:27.681Z,78.85
2022-10-16T19:58:56.018Z,78.85
2022-10-16T20:01:23.694Z,78.72
2022-10-16T20:03:50.904Z,79.15
2022-10-16T20:06:19.405Z,79.42
2022-10-16T20:08:48.351Z,79.90
2022-10-16T20:11:18.074Z,80.02
2022-10-16T20:13:45.254Z,79.97
2022-10-16T20:16:13.962Z,80.16
2022-10-16T20:18:41.747Z,80.25
2022-10-16T20:21:14.640Z,80.29
2022-10-16T20:23:42.180Z,80.12
2022-10-16T20:26:11.578Z,79.77
2022-10-16T20:28:40.618Z,79.69
2022-10-16T20:31:11.235Z,79.78
2022-10-16T20:33:38.398Z,80.16
2022-10-16T20:36:10.240Z,80.12
2022-10-16T20:38:37.706Z,80.49
2022-10-16T20:41:05.332Z,80.52
2022-10-16T20:43:32.390Z,80.36
2022-10-16T20:46:01.623Z,80.25
2022-10-16T20:48:28.769Z,79.88
2022-10-16T20:50:55.578Z,79.70
2022-10-16T20:53:22.859Z,79.19
2022-10-16T20:55:49.706Z,79.33
2022-10-16T20:58:17.534Z,79.01
2022-10-16T21:00:44.963Z,78.59
2022-10-16T21:03:12.383Z,78.61
2022-10-16T21:05:42.626Z,78.48
2022-10-16T21:08:09.869Z,78.29
2022-10-16T21:10:36.787Z,78.77
2022-10-16T21:13:04.027Z,78.79
2022-10-16T21:15:30.863Z,79.03
2022-10-16T21:17:57.876Z,79.47
2022-10-16T21:20:24.741Z,79.72
2022-10-16T21:22:51.758Z,79.40
2022-10-16T21:25:18.747Z,79.92
2022-10-16T21:27:46.053Z,79.66
2022-10-16T21:30:13.108Z,80.17
2022-10-16T21:32:40.211Z,80.57
2022-10-16T21:35:07.628Z,80.81
2022-10-16T21:37:35.245Z,81.21
2022-10-16T21:40:02.410Z,81.26
2022-10-16T21:42:30.101Z,80.89
2022-10-16T21:44:57.118Z,80.49
2022-10-16T21:47:24.093Z,79.94
2022-10-16T21:49:50.908Z,79.60
2022-10-16T21:52:17.911Z,78.69
2022-10-16T21:54:44.652Z,77.81
2022-10-16T21:57:11.650Z,77.68
2022-10-16T21:59:38.552Z,77.56
2022-10-16T22:02:06.160Z,77.13
2022-10-16T22:04:33.203Z,76.86
2022-10-16T22:07:00.285Z,76.43
2022-10-16T22:09:27.161Z,76.63
2022-10-16T22:11:54.141Z,76.83
2022-10-16T22:14:22.108Z,76.53
2022-10-16T22:16:50.021Z,75.92
2022-10-16T22:19:19.564Z,75.71
2022-10-16T22:21:47.862Z,75.97
2022-10-16T22:24:18.089Z,76.20
2022-10-16T22:26:45.420Z,75.96
2022-10-16T22:29:13.628Z,76.41
2022-10-16T22:31:40.699Z,76.13
2022-10-16T22:34:07.684Z,76.08
2022-10-16T22:36:35.033Z,76.04
2022-10-16T22:39:02.904Z,76.30
2022-10-16T22:41:30.192Z,76.68
2022-10-16T22:43:57.065Z,76.78
2022-10-16T22:46:27.746Z,77.29
2022-10-16T22:48:56.021Z,77.03
2022-10-16T22:51:24.420Z,76.87
2022-10-16T22:53:51.507Z,77.21
2022-10-16T22:56:20.932Z,77.69
2022-10-16T22:58:47.805Z,77.66
2022-10-16T23:01:26.922Z,78.25
2022-10-16T23:03:54.244Z,78.44
2022-10-16T23:06:21.381Z,78.17
2022-10-16T23:08:56.363Z,78.34
2022-10-16T23:11:24.082Z,78.77
2022-10-16T23:13:50.959Z,78.75
2022-10-16T23:16:19.875Z,78.41
2022-10-16T23:18:47.324Z,78.63
2022-10-16T23:21:20.974Z,78.64
2022-10-16T23:23:48.439Z,78.91
2022-10-16T23:26:22.503Z,79.21
2022-10-16T23:28:49.906Z,79.40
2022-10-16T23:31:18.149Z,78.97
2022-10-16T23:33:45.170Z,79.09
2022-10-16T23:36:14.839Z,79.31
2022-10-16T23:38:43.328Z,79.78
2022-10-16T23:41:10.864Z,80.00
2022-10-16T23:43:38.111Z,80.18
2022-10-16T23:46:07.010Z,80.88
2022-10-16T23:48:34.353Z,80.96
2022-10-16T23:51:01.442Z,81.17
2022-10-16T23:53:28.205Z,81.63
2022-10-16T23:55:55.197Z,82.04
2022-10-16T23:58:22.752Z,82.19
